Time,TemperatureF,DewpointF,PressureIn,WindDirection,WindDirectionDegrees,WindSpeedMPH,WindSpeedGustMPH,Humidity,HourlyPrecipIn,Conditions,Clouds,dailyrainin,SoftwareType,DateUTC
2013-07-01 00:14:00,71.1,62.0,29.97,NW,315,2.2,-999.0,73,-99.99,,,0.00,Acu-Link.com,2013-07-01 05:14:00,
2013-07-01 00:29:00,70.7,62.0,29.97,NNE,22,1.6,-999.0,74,-99.99,,,0.00,Acu-Link.com,2013-07-01 05:29:00,
2013-07-01 00:44:00,71.4,62.3,29.97,North,0,3.8,-999.0,73,-99.99,,,0.00,Acu-Link.com,2013-07-01 05:44:00,
2013-07-01 00:59:00,71.2,62.1,29.97,NE,45,5.1,-999.0,73,-99.99,,,0.00,Acu-Link.com,2013-07-01 05:59:00,
2013-07-01 01:15:00,70.7,62.0,29.97,NNE,22,0.0,-999.0,74,-99.99,,,0.00,Acu-Link.com,2013-07-01 06:15:00,
2013-07-01 01:30:00,70.0,62.1,29.97,NNW,337,2.7,-999.0,76,-99.99,,,0.00,Acu-Link.com,2013-07-01 06:30:00,
2013-07-01 01:45:00,69.6,62.1,29.97,NNW,337,0.0,-999.0,77,-99.99,,,0.00,Acu-Link.com,2013-07-01 06:45:00,
2013-07-01 02:00:00,69.3,62.5,29.97,East,90,1.6,-999.0,79,-99.99,,,0.00,Acu-Link.com,2013-07-01 07:00:00,
2013-07-01 02:16:00,68.9,62.5,29.97,NE,45,0.0,-999.0,80,-99.99,,,0.00,Acu-Link.com,2013-07-01 07:16:00,
2013-07-01 02:31:00,68.7,62.6,29.97,NE,45,0.0,-999.0,81,-99.99,,,0.00,Acu-Link.com,2013-07-01 07:31:00,
2013-07-01 02:46:00,68.2,62.5,29.97,SW,225,2.2,-999.0,82,-99.99,,,0.00,Acu-Link.com,2013-07-01 07:46:00,
2013-07-01 03:01:00,67.8,62.5,29.96,NNW,337,3.1,-999.0,83,-99.99,,,0.00,Acu-Link.com,2013-07-01 08:01:00,
2013-07-01 03:17:00,67.8,62.8,29.96,NNE,22,0.0,-999.0,84,-99.99,,,0.00,Acu-Link.com,2013-07-01 08:17:00,
2013-07-01 03:32:00,67.6,63.0,29.96,WNW,292,0.0,-999.0,85,-99.99,,,0.00,Acu-Link.com,2013-07-01 08:32:00,
2013-07-01 03:47:00,67.1,62.8,29.96,NE,45,0.0,-999.0,86,-99.99,,,0.00,Acu-Link.com,2013-07-01 08:47:00,
2013-07-01 04:02:00,66.4,62.4,29.97,NNE,22,0.0,-999.0,87,-99.99,,,0.00,Acu-Link.com,2013-07-01 09:02:00,
2013-07-01 04:18:00,66.0,63.0,29.96,NNE,22,0.0,-999.0,90,-99.99,,,0.00,Acu-Link.com,2013-07-01 09:18:00,
2013-07-01 04:33:00,65.7,63.3,29.97,WNW,292,0.0,-999.0,92,-99.99,,,0.00,Acu-Link.com,2013-07-01 09:33:00,
2013-07-01 04:48:00,65.8,63.4,29.97,NNE,22,0.0,-999.0,92,-99.99,,,0.00,Acu-Link.com,2013-07-01 09:48:00,
2013-07-01 05:03:00,65.8,63.8,29.98,NNE,22,1.1,-999.0,93,-99.99,,,0.00,Acu-Link.com,2013-07-01 10:03:00,
2013-07-01 05:18:00,66.2,64.1,29.98,North,0,2.2,-999.0,93,-99.99,,,0.00,Acu-Link.com,2013-07-01 10:18:00,
2013-07-01 05:34:00,66.4,64.3,29.99,NE,45,1.6,-999.0,93,-99.99,,,0.00,Acu-Link.com,2013-07-01 10:34:00,
2013-07-01 05:49:00,66.2,64.4,29.99,North,0,0.0,-999.0,94,-99.99,,,0.00,Acu-Link.com,2013-07-01 10:49:00,
2013-07-01 06:04:00,66.0,64.2,30.00,ENE,67,0.0,-999.0,94,-99.99,,,0.00,Acu-Link.com,2013-07-01 11:04:00,
2013-07-01 06:19:00,65.7,64.2,30.01,WNW,292,0.0,-999.0,95,-99.99,,,0.00,Acu-Link.com,2013-07-01 11:19:00,
2013-07-01 06:34:00,65.7,64.2,30.01,ENE,67,1.6,-999.0,95,-99.99,,,0.00,Acu-Link.com,2013-07-01 11:34:00,
2013-07-01 06:50:00,66.6,64.8,30.01,NE,45,2.7,-999.0,94,-99.99,,,0.00,Acu-Link.com,2013-07-01 11:50:00,
2013-07-01 07:05:00,67.6,65.2,30.02,NNE,22,1.6,-999.0,92,-99.99,,,0.00,Acu-Link.com,2013-07-01 12:05:00,
2013-07-01 07:20:00,68.7,65.3,30.03,NNE,22,0.0,-999.0,89,-99.99,,,0.00,Acu-Link.com,2013-07-01 12:20:00,
2013-07-01 07:35:00,71.4,66.3,30.03,North,0,3.8,-999.0,84,-99.99,,,0.00,Acu-Link.com,2013-07-01 12:35:00,
2013-07-01 07:50:00,73.6,66.7,30.03,NNW,337,1.6,-999.0,79,-99.99,,,0.00,Acu-Link.com,2013-07-01 12:50:00,
2013-07-01 08:06:00,75.7,67.6,30.04,East,90,3.1,-999.0,76,-99.99,,,0.00,Acu-Link.com,2013-07-01 13:06:00,
2013-07-01 08:21:00,77.4,67.6,30.04,ESE,112,2.7,-999.0,72,-99.99,,,0.00,Acu-Link.com,2013-07-01 13:21:00,
2013-07-01 08:36:00,80.4,68.4,30.04,NNW,337,2.7,-999.0,67,-99.99,,,0.00,Acu-Link.com,2013-07-01 13:36:00,
2013-07-01 08:51:00,79.7,67.8,30.05,NNE,22,7.4,-999.0,67,-99.99,,,0.00,Acu-Link.com,2013-07-01 13:51:00,
2013-07-01 09:06:00,80.2,66.9,30.05,NNE,22,4.3,-999.0,64,-99.99,,,0.00,Acu-Link.com,2013-07-01 14:06:00,
2013-07-01 09:22:00,81.5,67.7,30.05,SW,225,3.1,-999.0,63,-99.99,,,0.00,Acu-Link.com,2013-07-01 14:22:00,
2013-07-01 09:37:00,82.6,68.2,30.05,NNW,337,3.1,-999.0,62,-99.99,,,0.00,Acu-Link.com,2013-07-01 14:37:00,
2013-07-01 09:52:00,82.8,66.4,30.05,West,270,5.1,-999.0,58,-99.99,,,0.00,Acu-Link.com,2013-07-01 14:52:00,
2013-07-01 10:07:00,83.7,67.3,30.05,NNW,337,6.3,-999.0,58,-99.99,,,0.00,Acu-Link.com,2013-07-01 15:07:00,
2013-07-01 10:23:00,83.7,66.8,30.05,WNW,292,4.7,-999.0,57,-99.99,,,0.00,Acu-Link.com,2013-07-01 15:23:00,
2013-07-01 10:38:00,83.8,66.4,30.05,WNW,292,4.7,-999.0,56,-99.99,,,0.00,Acu-Link.com,2013-07-01 15:38:00,
2013-07-01 10:53:00,84.9,66.9,30.05,ENE,67,3.1,-999.0,55,-99.99,,,0.00,Acu-Link.com,2013-07-01 15:53:00,
2013-07-01 11:08:00,83.7,64.7,30.05,WNW,292,2.7,-999.0,53,-99.99,,,0.00,Acu-Link.com,2013-07-01 16:08:00,
2013-07-01 11:23:00,84.9,66.9,30.05,West,270,2.2,-999.0,55,-99.99,,,0.00,Acu-Link.com,2013-07-01 16:23:00,
2013-07-01 11:39:00,86.0,66.3,30.05,ENE,67,5.8,-999.0,52,-99.99,,,0.00,Acu-Link.com,2013-07-01 16:39:00,
2013-07-01 11:54:00,86.2,66.5,30.05,East,90,5.1,-999.0,52,-99.99,,,0.00,Acu-Link.com,2013-07-01 16:54:00,
2013-07-01 12:09:00,84.9,66.9,30.05,North,0,4.3,-999.0,55,-99.99,,,0.00,Acu-Link.com,2013-07-01 17:09:00,
2013-07-01 12:24:00,87.4,67.1,30.04,NW,315,5.1,-999.0,51,-99.99,,,0.00,Acu-Link.com,2013-07-01 17:24:00,
2013-07-01 12:39:00,86.5,67.3,30.04,North,0,2.7,-999.0,53,-99.99,,,0.00,Acu-Link.com,2013-07-01 17:39:00,
2013-07-01 12:55:00,84.7,65.1,30.04,NW,315,4.3,-999.0,52,-99.99,,,0.00,Acu-Link.com,2013-07-01 17:55:00,
2013-07-01 13:10:00,87.3,66.3,30.04,WNW,292,6.7,-999.0,50,-99.99,,,0.00,Acu-Link.com,2013-07-01 18:10:00,
2013-07-01 13:25:00,88.7,66.4,30.04,NNW,337,3.8,-999.0,48,-99.99,,,0.00,Acu-Link.com,2013-07-01 18:25:00,
2013-07-01 13:40:00,88.2,66.6,30.04,NE,45,5.8,-999.0,49,-99.99,,,0.00,Acu-Link.com,2013-07-01 18:40:00,
2013-07-01 13:55:00,89.1,66.8,30.03,NNE,22,8.3,-999.0,48,-99.99,,,0.00,Acu-Link.com,2013-07-01 18:55:00,
2013-07-01 14:11:00,89.8,66.8,30.03,WNW,292,5.1,-999.0,47,-99.99,,,0.00,Acu-Link.com,2013-07-01 19:11:00,
2013-07-01 14:26:00,85.8,65.0,30.02,NNE,22,3.1,-999.0,50,-99.99,,,0.00,Acu-Link.com,2013-07-01 19:26:00,
2013-07-01 14:41:00,85.6,64.3,30.02,ESE,112,5.8,-999.0,49,-99.99,,,0.00,Acu-Link.com,2013-07-01 19:41:00,
2013-07-01 14:56:00,89.2,67.5,30.02,NNE,22,5.1,-999.0,49,-99.99,,,0.00,Acu-Link.com,2013-07-01 19:56:00,
2013-07-01 15:12:00,88.9,64.8,30.02,NNW,337,8.9,-999.0,45,-99.99,,,0.00,Acu-Link.com,2013-07-01 20:12:00,
2013-07-01 15:27:00,90.5,66.2,30.01,SW,225,2.7,-999.0,45,-99.99,,,0.00,Acu-Link.com,2013-07-01 20:27:00,
2013-07-01 15:42:00,88.2,65.4,30.01,NW,315,6.7,-999.0,47,-99.99,,,0.00,Acu-Link.com,2013-07-01 20:42:00,
2013-07-01 15:57:00,90.3,64.7,30.01,NNW,337,6.7,-999.0,43,-99.99,,,0.00,Acu-Link.com,2013-07-01 20:57:00,
2013-07-01 16:12:00,90.5,63.5,30.00,NNE,22,4.3,-999.0,41,-99.99,,,0.00,Acu-Link.com,2013-07-01 21:12:00,
2013-07-01 16:28:00,90.0,63.7,30.00,NW,315,4.7,-999.0,42,-99.99,,,0.00,Acu-Link.com,2013-07-01 21:28:00,
2013-07-01 16:43:00,88.0,63.3,30.00,NE,45,4.7,-999.0,44,-99.99,,,0.00,Acu-Link.com,2013-07-01 21:43:00,
2013-07-01 16:58:00,86.4,63.7,30.00,East,90,2.7,-999.0,47,-99.99,,,0.00,Acu-Link.com,2013-07-01 21:58:00,
2013-07-01 17:13:00,87.1,65.0,30.00,East,90,5.1,-999.0,48,-99.99,,,0.00,Acu-Link.com,2013-07-01 22:13:00,
2013-07-01 17:28:00,88.2,64.7,29.99,NE,45,5.1,-999.0,46,-99.99,,,0.00,Acu-Link.com,2013-07-01 22:28:00,
2013-07-01 17:44:00,90.9,65.2,29.99,SSW,202,7.8,-999.0,43,-99.99,,,0.00,Acu-Link.com,2013-07-01 22:44:00,
2013-07-01 17:59:00,89.8,64.9,29.99,ENE,67,3.1,-999.0,44,-99.99,,,0.00,Acu-Link.com,2013-07-01 22:59:00,
2013-07-01 18:14:00,89.6,65.4,29.99,SSE,157,2.2,-999.0,45,-99.99,,,0.00,Acu-Link.com,2013-07-01 23:14:00,
2013-07-01 18:29:00,90.1,65.2,29.99,NE,45,3.8,-999.0,44,-99.99,,,0.00,Acu-Link.com,2013-07-01 23:29:00,
2013-07-01 18:44:00,89.6,64.8,29.98,NNE,22,4.7,-999.0,44,-99.99,,,0.00,Acu-Link.com,2013-07-01 23:44:00,
2013-07-01 19:00:00,88.9,64.1,29.99,NE,45,3.1,-999.0,44,-99.99,,,0.00,Acu-Link.com,2013-07-02 00:00:00,
2013-07-01 19:15:00,88.0,63.9,29.99,NNE,22,4.3,-999.0,45,-99.99,,,0.00,Acu-Link.com,2013-07-02 00:15:00,
2013-07-01 19:30:00,87.3,63.9,29.99,NNE,22,4.3,-999.0,46,-99.99,,,0.00,Acu-Link.com,2013-07-02 00:30:00,
2013-07-01 19:45:00,85.5,63.5,30.00,NNE,22,4.7,-999.0,48,-99.99,,,0.00,Acu-Link.com,2013-07-02 00:45:00,
2013-07-01 20:00:00,83.5,63.4,30.00,NNE,22,3.8,-999.0,51,-99.99,,,0.00,Acu-Link.com,2013-07-02 01:00:00,
2013-07-01 20:16:00,82.0,64.3,30.00,North,0,0.0,-999.0,55,-99.99,,,0.00,Acu-Link.com,2013-07-02 01:16:00,
2013-07-01 20:31:00,80.6,63.9,30.01,North,0,1.6,-999.0,57,-99.99,,,0.00,Acu-Link.com,2013-07-02 01:31:00,
2013-07-01 20:46:00,79.0,64.4,30.01,ENE,67,3.8,-999.0,61,-99.99,,,0.00,Acu-Link.com,2013-07-02 01:46:00,
2013-07-01 21:01:00,78.1,64.4,30.01,WNW,292,1.6,-999.0,63,-99.99,,,0.00,Acu-Link.com,2013-07-02 02:01:00,
2013-07-01 21:17:00,77.0,63.9,30.02,NW,315,0.0,-999.0,64,-99.99,,,0.00,Acu-Link.com,2013-07-02 02:17:00,
2013-07-01 21:32:00,76.1,64.3,30.02,NNE,22,0.0,-999.0,67,-99.99,,,0.00,Acu-Link.com,2013-07-02 02:32:00,
2013-07-01 21:47:00,75.4,64.1,30.02,NNE,22,0.0,-999.0,68,-99.99,,,0.00,Acu-Link.com,2013-07-02 02:47:00,
2013-07-01 22:02:00,75.0,63.7,30.02,North,0,0.0,-999.0,68,-99.99,,,0.00,Acu-Link.com,2013-07-02 03:02:00,
2013-07-01 22:17:00,74.3,63.5,30.03,NNE,22,3.1,-999.0,69,-99.99,,,0.00,Acu-Link.com,2013-07-02 03:17:00,
2013-07-01 22:33:00,73.8,63.4,30.04,North,0,0.0,-999.0,70,-99.99,,,0.00,Acu-Link.com,2013-07-02 03:33:00,
2013-07-01 22:48:00,73.8,63.4,30.03,NNE,22,1.1,-999.0,70,-99.99,,,0.00,Acu-Link.com,2013-07-02 03:48:00,
2013-07-01 23:03:00,73.6,63.2,30.04,NNE,22,0.0,-999.0,70,-99.99,,,0.00,Acu-Link.com,2013-07-02 04:03:00,
2013-07-01 23:18:00,73.4,63.0,30.04,ENE,67,1.6,-999.0,70,-99.99,,,0.00,Acu-Link.com,2013-07-02 04:18:00,
2013-07-01 23:33:00,72.7,63.1,30.04,NNW,337,1.6,-999.0,72,-99.99,,,0.00,Acu-Link.com,2013-07-02 04:33:00,
2013-07-01 23:49:00,72.1,63.4,30.05,NE,45,2.7,-999.0,74,-99.99,,,0.00,Acu-Link.com,2013-07-02 04:49:00,